^^
Station Historical Data
Daily Summary for January 26, 2018 Units:  Metric    English   Both
« Previous Day
Next Day »
Daily Weekly Monthly Yearly Custom
  High: Low: Average:
Temperature: -17.8 °C 17.8 °C 22.7 °C
Dew Point: -17.8 °C 6.4 °C 10.3 °C
Humidity: Humidity% 20% 48%
Wind Speed: 0km/h 7.9km/h 18km/h
Wind Gust: 0km/h - -
Wind- - SSW
Pressure: 0 hPa 1003.9 hPa -
Precipitation: 0 mm    
Historical Graphs
 
 
Tabular Data for January 26, 2018
Time Temperature Dew Point Pressure Wind Wind Speed Wind Gust Humidity Rainfall Rate (Hourly) solar Conditions
-17.8 °C -17.8 °C 0 hPa Calm     Humidity% 0 mm SolarRadiationWatts/m^2 W/m2 Conditions
00:02 21.3 °C 11 °C 1007 hPa SSW 19.5 km/h 30.6 km/h 52% 0 mm 0.0 W/m2
00:07 21.2 °C 11 °C 1007.3 hPa SSW 14.3 km/h 27.4 km/h 52% 0 mm 0.0 W/m2
00:12 21.2 °C 11 °C 1007 hPa SSW 19.5 km/h 29 km/h 52% 0 mm 0.0 W/m2
00:17 21.1 °C 11.1 °C 1007 hPa SSW 25.9 km/h 25.9 km/h 53% 0 mm 0.0 W/m2
00:27 20.9 °C 11.2 °C 1007.3 hPa SSW 17.7 km/h 29 km/h 54% 0 mm 0.0 W/m2
00:37 20.8 °C 11.2 °C 1007 hPa SSW 17.7 km/h 27.4 km/h 54% 0 mm 0.0 W/m2
00:47 20.7 °C 11.1 °C 1007 hPa SSW 14.3 km/h 24.1 km/h 54% 0 mm 0.0 W/m2
00:57 20.6 °C 11.2 °C 1007.3 hPa SSW 24.1 km/h 29 km/h 55% 0 mm 0.0 W/m2
01:02 20.5 °C 11.1 °C 1007.3 hPa SW 16.3 km/h 22.5 km/h 55% 0 mm 0.0 W/m2
01:07 20.4 °C 11.1 °C 1007.3 hPa SSW 16.3 km/h 24.1 km/h 55% 0 mm 0.0 W/m2
01:12 20.3 °C 11 °C 1007.3 hPa South 16.3 km/h 24.1 km/h 55% 0 mm 0.0 W/m2
01:18 20.3 °C 11.2 °C 1007 hPa SSW 14.3 km/h 20.9 km/h 56% 0 mm 0.0 W/m2
01:23 20.2 °C 11.1 °C 1007 hPa SSW 25.9 km/h 25.9 km/h 56% 0 mm 0.0 W/m2
01:33 20.1 °C 11.3 °C 1007.3 hPa SSW 17.7 km/h 29 km/h 57% 0 mm 0.0 W/m2
01:38 20 °C 11.2 °C 1007.3 hPa SSW 22.7 km/h 22.7 km/h 57% 0 mm 0.0 W/m2
01:43 20 °C 11.2 °C 1007 hPa SSW 16.3 km/h 20.9 km/h 57% 0 mm 0.0 W/m2
01:48 19.9 °C 11.1 °C 1007 hPa SSW 20.9 km/h 22.5 km/h 57% 0 mm 0.0 W/m2
01:53 19.9 °C 11.1 °C 1007 hPa SSW 17.7 km/h 24.1 km/h 57% 0 mm 0.0 W/m2
01:58 19.9 °C 11.4 °C 1007 hPa SSW 19.5 km/h 22.5 km/h 58% 0 mm 0.0 W/m2
02:08 19.8 °C 11.3 °C 1007 hPa SSW 9.7 km/h 16.1 km/h 58% 0 mm 0.0 W/m2
02:13 19.8 °C 11.3 °C 1007 hPa SSW 14.3 km/h 20.9 km/h 58% 0 mm 0.0 W/m2
02:18 19.8 °C 11.3 °C 1007 hPa SSW 16.3 km/h 22.5 km/h 58% 0 mm 0.0 W/m2
02:23 19.7 °C 11.2 °C 1007 hPa SSW 16.3 km/h 22.5 km/h 58% 0 mm 0.0 W/m2
02:28 19.7 °C 11.2 °C 1007 hPa SSW 17.7 km/h 20.9 km/h 58% 0 mm 0.0 W/m2
02:33 19.7 °C 11.2 °C 1007 hPa SSW 11.1 km/h 19.3 km/h 58% 0 mm 0.0 W/m2
02:38 19.7 °C 11.2 °C 1007 hPa SSW 9.7 km/h 14.5 km/h 58% 0 mm 0.0 W/m2
02:48 19.7 °C 11.2 °C 1007 hPa SSW 11.1 km/h 16.1 km/h 58% 0 mm 0.0 W/m2
02:53 19.7 °C 11.5 °C 1007 hPa SSW 16.3 km/h 16.3 km/h 59% 0 mm 0.0 W/m2
02:58 19.7 °C 11.5 °C 1007 hPa SW 16.3 km/h 17.7 km/h 59% 0 mm 0.0 W/m2
03:03 19.7 °C 11.5 °C 1007 hPa SSW 11.1 km/h 16.1 km/h 59% 0 mm 0.0 W/m2
03:08 19.7 °C 11.5 °C 1007 hPa SSW 13 km/h 16.1 km/h 59% 0 mm 0.0 W/m2
03:13 19.6 °C 11.4 °C 1007.3 hPa SSW 13 km/h 17.7 km/h 59% 0 mm 0.0 W/m2
03:18 19.6 °C 11.4 °C 1007.3 hPa SSW 9.7 km/h 12.9 km/h 59% 0 mm 0.0 W/m2
03:23 19.6 °C 11.4 °C 1007 hPa South 11.1 km/h 16.1 km/h 59% 0 mm 0.0 W/m2
03:29 19.6 °C 11.4 °C 1007 hPa South 11.1 km/h 16.1 km/h 59% 0 mm 0.0 W/m2
03:34 19.5 °C 11.3 °C 1007 hPa SSW 11.1 km/h 16.1 km/h 59% 0 mm 0.0 W/m2
03:39 19.4 °C 11.2 °C 1007 hPa SSW 11.1 km/h 17.7 km/h 59% 0 mm 0.0 W/m2
03:44 19.4 °C 11.2 °C 1007 hPa SSW 11.1 km/h 12.9 km/h 59% 0 mm 0.0 W/m2
03:49 19.4 °C 11.2 °C 1007 hPa SSW 13 km/h 13 km/h 59% 0 mm 0.0 W/m2
03:59 19.3 °C 11.3 °C 1006.7 hPa South 9.7 km/h 12.9 km/h 60% 0 mm 0.0 W/m2
04:09 19.2 °C 11.2 °C 1006.7 hPa South 7.9 km/h 12.9 km/h 60% 0 mm 0.0 W/m2
04:14 19.1 °C 11.2 °C 1006.7 hPa South 13 km/h 14.5 km/h 60% 0 mm 0.0 W/m2
04:19 19.1 °C 11.2 °C 1006.7 hPa South 11.1 km/h 11.3 km/h 60% 0 mm 0.0 W/m2
04:24 19.1 °C 11.2 °C 1006.7 hPa South 11.1 km/h 14.5 km/h 60% 0 mm 0.0 W/m2
04:29 19.1 °C 11.2 °C 1006.7 hPa SSW 9.7 km/h 12.9 km/h 60% 0 mm 0.0 W/m2
04:34 19.1 °C 11.2 °C 1006.7 hPa SSW 9.7 km/h 14.5 km/h 60% 0 mm 0.0 W/m2
04:39 19.1 °C 10.9 °C 1006.7 hPa SSW 9.7 km/h 14.5 km/h 59% 0 mm 0.0 W/m2
04:44 19.1 °C 11.2 °C 1006.3 hPa SSW 9.7 km/h 16.1 km/h 60% 0 mm 0.0 W/m2
04:49 19.1 °C 11.2 °C 1006.7 hPa SSW 7.9 km/h 14.5 km/h 60% 0 mm 0.0 W/m2
04:55 19 °C 11.1 °C 1006.3 hPa SSW 9.7 km/h 12.9 km/h 60% 0 mm 0.0 W/m2
05:00 18.9 °C 11 °C 1006.3 hPa SSW 7.9 km/h 14.5 km/h 60% 0 mm 0.0 W/m2
05:05 18.9 °C 11.2 °C 1006.3 hPa SSW 14.3 km/h 14.5 km/h 61% 0 mm 0.0 W/m2
05:10 18.8 °C 11.1 °C 1006.3 hPa SSW 7.9 km/h 12.9 km/h 61% 0 mm 0.0 W/m2
05:20 18.7 °C 11.3 °C 1006.3 hPa SSW 13 km/h 16.1 km/h 62% 0 mm 0.0 W/m2
05:25 18.6 °C 11.2 °C 1006.3 hPa SSW 11.1 km/h 16.1 km/h 62% 0 mm 0.0 W/m2
05:30 18.4 °C 11 °C 1006.3 hPa SSW 9.7 km/h 14.5 km/h 62% 0 mm 0.0 W/m2
05:35 18.4 °C 11.2 °C 1006.3 hPa SSW 13 km/h 14.5 km/h 63% 0 mm 0.0 W/m2
05:40 18.3 °C 11.1 °C 1006.3 hPa SW 13 km/h 14.5 km/h 63% 0 mm 0.0 W/m2
05:45 18.3 °C 11.1 °C 1006.3 hPa SW 16.3 km/h 16.3 km/h 63% 0 mm 0.0 W/m2
05:55 18.2 °C 11 °C 1006.3 hPa SW 11.1 km/h 17.7 km/h 63% 0 mm 0.0 W/m2
06:00 18.2 °C 11 °C 1006.3 hPa SW 13 km/h 17.7 km/h 63% 0 mm 0.0 W/m2
06:05 18.2 °C 11 °C 1006.3 hPa SW 11.1 km/h 14.5 km/h 63% 0 mm 0.0 W/m2
06:10 18.1 °C 11.2 °C 1006.3 hPa SW 13 km/h 16.1 km/h 64% 0 mm 0.0 W/m2
06:15 18.1 °C 11.2 °C 1006.7 hPa SW 9.7 km/h 14.5 km/h 64% 0 mm 0.0 W/m2
06:20 18 °C 11.1 °C 1006.7 hPa SW 11.1 km/h 14.5 km/h 64% 0 mm 5.0 W/m2
06:25 17.9 °C 11.2 °C 1007 hPa SW 14.3 km/h 16.1 km/h 65% 0 mm 9.0 W/m2
06:35 17.8 °C 11.1 °C 1007 hPa SW 11.1 km/h 16.1 km/h 65% 0 mm 16.0 W/m2
06:40 17.8 °C 11.1 °C 1007 hPa SW 14.3 km/h 19.3 km/h 65% 0 mm 18.0 W/m2
06:45 17.8 °C 11.1 °C 1007 hPa SW 16.3 km/h 19.3 km/h 65% 0 mm 33.0 W/m2
06:51 17.8 °C 10.9 °C 1007 hPa SW 17.7 km/h 19.3 km/h 64% 0 mm 49.0 W/m2
07:01 18.1 °C 11.2 °C 1007 hPa SW 16.3 km/h 16.3 km/h 64% 0 mm 86.0 W/m2
07:06 18.2 °C 11 °C 1007.3 hPa SW 13 km/h 19.3 km/h 63% 0 mm 118.0 W/m2
07:11 18.4 °C 11 °C 1007.3 hPa SW 14.3 km/h 19.3 km/h 62% 0 mm 139.0 W/m2
07:16 18.6 °C 10.9 °C 1007.3 hPa SW 13 km/h 19.3 km/h 61% 0 mm 151.0 W/m2
07:21 18.7 °C 11 °C 1007 hPa SW 19.5 km/h 20.9 km/h 61% 0 mm 163.0 W/m2
07:26 18.8 °C 11.1 °C 1007.3 hPa SW 13 km/h 17.7 km/h 61% 0 mm 197.0 W/m2
07:31 18.9 °C 11.2 °C 1007.3 hPa SW 13 km/h 17.7 km/h 61% 0 mm 230.0 W/m2
07:36 19.2 °C 11 °C 1007.3 hPa SW 13 km/h 20.9 km/h 59% 0 mm 262.0 W/m2
07:46 19.6 °C 11.1 °C 1007.3 hPa SW 19.5 km/h 20.9 km/h 58% 0 mm 341.0 W/m2
07:52 19.7 °C 10.9 °C 1007.3 hPa SW 11.1 km/h 20.9 km/h 57% 0 mm 346.0 W/m2
07:57 19.8 °C 11 °C 1007.3 hPa SW 17.7 km/h 17.7 km/h 57% 0 mm 367.0 W/m2
08:02 19.8 °C 11 °C 1007.3 hPa SW 17.7 km/h 20.9 km/h 57% 0 mm 343.0 W/m2
08:07 19.7 °C 11.2 °C 1007.3 hPa SW 19.5 km/h 22.5 km/h 58% 0 mm 352.0 W/m2
08:12 19.4 °C 11.2 °C 1007.3 hPa SSW 17.7 km/h 22.5 km/h 59% 0 mm 397.0 W/m2
08:17 19.5 °C 11 °C 1007.3 hPa SW 20.9 km/h 22.5 km/h 58% 0 mm 330.0 W/m2
08:27 19.3 °C 11.1 °C 1007.3 hPa SW 16.3 km/h 24.1 km/h 59% 0 mm 100.0 W/m2
08:33 19.1 °C 10.9 °C 1007.3 hPa SW 19.5 km/h 22.5 km/h 59% 0 mm 118.0 W/m2
08:43 18.8 °C 10.9 °C 1007.7 hPa SSW 16.3 km/h 22.5 km/h 60% 0 mm 63.0 W/m2
08:49 19.2 °C 11.2 °C 1007.7 hPa SSW 19.5 km/h 24.1 km/h 60% 0 mm 459.0 W/m2
08:54 19.5 °C 11.3 °C 1007.3 hPa SW 24.1 km/h 27.4 km/h 59% 0 mm 476.0 W/m2
09:22 20.9 °C 11.2 °C 1007.7 hPa SW 22.7 km/h 25.7 km/h 54% 0 mm 577.0 W/m2
09:32 21.4 °C 11.1 °C 1007.7 hPa SW 24.1 km/h 27.4 km/h 52% 0 mm 624.0 W/m2
09:40 21.6 °C 11.3 °C 1007.7 hPa SW 19.5 km/h 27.4 km/h 52% 0 mm 680.0 W/m2
09:48 21.8 °C 11.2 °C 1007.7 hPa SSW 16.3 km/h 29 km/h 51% 0 mm 721.0 W/m2
09:57 22.1 °C 11.2 °C 1007.3 hPa SSW 19.5 km/h 24.1 km/h 50% 0 mm 248.0 W/m2
10:03 22 °C 11.1 °C 1007.3 hPa SW 20.9 km/h 29 km/h 50% 0 mm 752.0 W/m2
10:12 22.3 °C 11.1 °C 1007.7 hPa SSW 19.5 km/h 25.7 km/h 49% 0 mm 768.0 W/m2
10:18 22.7 °C 11.4 °C 1007.3 hPa SW 20.9 km/h 25.7 km/h 49% 0 mm 758.0 W/m2
10:27 23.2 °C 11.3 °C 1007.3 hPa SSW 19.5 km/h 25.7 km/h 47% 0 mm 798.0 W/m2
10:33 23.4 °C 11.1 °C 1007.3 hPa SW 17.7 km/h 27.4 km/h 46% 0 mm 802.0 W/m2
10:38 23.4 °C 11.1 °C 1007.3 hPa SSW 20.9 km/h 24.1 km/h 46% 0 mm 810.0 W/m2
10:47 23.8 °C 11.2 °C 1007.3 hPa SW 22.7 km/h 25.7 km/h 45% 0 mm 812.0 W/m2
10:52 23.9 °C 10.9 °C 1007.3 hPa SW 14.3 km/h 24.1 km/h 44% 0 mm 835.0 W/m2
10:58 24.2 °C 11.2 °C 1007.3 hPa SSW 20.9 km/h 24.1 km/h 44% 0 mm 846.0 W/m2
11:03 24.8 °C 11 °C 1007.3 hPa SSW 17.7 km/h 22.5 km/h 42% 0 mm 849.0 W/m2
11:08 25.1 °C 10.9 °C 1007 hPa SW 22.7 km/h 25.7 km/h 41% 0 mm 860.0 W/m2
11:18 25.4 °C 10.8 °C 1007 hPa SW 14.3 km/h 25.7 km/h 40% 0 mm 882.0 W/m2
11:23 25.7 °C 10.7 °C 1007 hPa SW 17.7 km/h 29 km/h 39% 0 mm 879.0 W/m2
11:29 26.2 °C 10.8 °C 1007.3 hPa South 14.3 km/h 22.5 km/h 38% 0 mm 888.0 W/m2
11:34 26.4 °C 10.9 °C 1007 hPa SSW 17.7 km/h 25.7 km/h 38% 0 mm 896.0 W/m2
11:44 26.6 °C 10.7 °C 1007 hPa WSW 22.7 km/h 27.4 km/h 37% 0 mm 911.0 W/m2
11:54 27.1 °C 10.7 °C 1007 hPa SSW 22.7 km/h 24.1 km/h 36% 0 mm 923.0 W/m2
11:59 26.9 °C 10.6 °C 1007 hPa SW 16.3 km/h 27.4 km/h 36% 0 mm 928.0 W/m2
12:04 27 °C 10.7 °C 1007 hPa SW 19.5 km/h 24.1 km/h 36% 0 mm 932.0 W/m2
12:14 27.6 °C 10.3 °C 1007 hPa SSW 22.7 km/h 27.4 km/h 34% 0 mm 947.0 W/m2
12:20 27.7 °C 10.4 °C 1006.7 hPa SW 20.9 km/h 20.9 km/h 34% 0 mm 967.0 W/m2
12:29 28.4 °C 10.6 °C 1006.7 hPa SW 24.1 km/h 27.4 km/h 33% 0 mm 977.0 W/m2
12:39 28.7 °C 10.4 °C 1006.7 hPa SW 20.9 km/h 25.7 km/h 32% 0 mm 958.0 W/m2
12:48 29 °C 9.7 °C 1006.3 hPa South 22.7 km/h 27.4 km/h 30% 0 mm 962.0 W/m2
12:53 29.4 °C 10.5 °C 1006.3 hPa SW 17.7 km/h 25.7 km/h 31% 0 mm 963.0 W/m2
12:58 29.4 °C 10 °C 1006.3 hPa SSW 24.1 km/h 33.8 km/h 30% 0 mm 962.0 W/m2
13:03 29.3 °C 9.9 °C 1006.3 hPa SSW 25.9 km/h 27.4 km/h 30% 0 mm 958.0 W/m2
13:08 29.6 °C 10.2 °C 1006.3 hPa SSW 17.7 km/h 25.7 km/h 30% 0 mm 960.0 W/m2
13:14 30.1 °C 10.1 °C 1006.3 hPa South 17.7 km/h 25.7 km/h 29% 0 mm 967.0 W/m2
13:23 30.1 °C 9.6 °C 1006 hPa SW 22.7 km/h 30.6 km/h 28% 0 mm 965.0 W/m2
13:33 30.3 °C 9.8 °C 1006 hPa South 19.5 km/h 27.4 km/h 28% 0 mm 958.0 W/m2
13:43 30.7 °C 9.6 °C 1005.6 hPa SW 20.9 km/h 27.4 km/h 27% 0 mm 958.0 W/m2
13:49 30.5 °C 9.4 °C 1005.6 hPa SSW 22.7 km/h 25.7 km/h 27% 0 mm 976.0 W/m2
14:00 30.7 °C 9.6 °C 1005.6 hPa SW 22.7 km/h 29 km/h 27% 0 mm 944.0 W/m2
14:06 30.8 °C 9.1 °C 1005.6 hPa SW 20.9 km/h 29 km/h 26% 0 mm 972.0 W/m2
14:16 30.7 °C 9 °C 1005.6 hPa SSW 17.7 km/h 27.4 km/h 26% 0 mm 963.0 W/m2
14:30 30.9 °C 9.2 °C 1005.6 hPa South 24.1 km/h 25.7 km/h 26% 0 mm 979.0 W/m2
15:01 31.3 °C 8.9 °C 1005.3 hPa SW 20.9 km/h 24.1 km/h 25% 0 mm 898.0 W/m2
15:14 31.5 °C 8.5 °C 1005.3 hPa SSW 22.7 km/h 27.4 km/h 24% 0 mm 847.0 W/m2
15:24 32.1 °C 7.7 °C 1005 hPa SW 17.7 km/h 27.4 km/h 22% 0 mm 819.0 W/m2
15:35 32.1 °C 7 °C 1005 hPa SSW 20.9 km/h 24.1 km/h 21% 0 mm 788.0 W/m2
15:50 32.5 °C 7.4 °C 1004.6 hPa South 16.3 km/h 17.7 km/h 21% 0 mm 740.0 W/m2
16:02 31.9 °C 6.9 °C 1004.6 hPa SSW 14.3 km/h 25.7 km/h 21% 0 mm 701.0 W/m2
16:14 32.3 °C 7.2 °C 1004.6 hPa South 19.5 km/h 27.4 km/h 21% 0 mm 671.0 W/m2
16:24 32.2 °C 6.4 °C 1004.6 hPa SSW 19.5 km/h 24.1 km/h 20% 0 mm 643.0 W/m2
16:33 32.2 °C 6.4 °C 1004.3 hPa SSW 20.9 km/h 29 km/h 20% 0 mm 612.0 W/m2
16:41 32.1 °C 7 °C 1004.3 hPa SSW 22.7 km/h 29 km/h 21% 0 mm 580.0 W/m2
16:49 31.9 °C 7.5 °C 1004.3 hPa SSW 20.9 km/h 33.8 km/h 22% 0 mm 548.0 W/m2
16:59 31.8 °C 7.5 °C 1004.3 hPa SSW 19.5 km/h 30.6 km/h 22% 0 mm 517.0 W/m2
17:04 31.9 °C 7.5 °C 1004.3 hPa SW 24.1 km/h 32.2 km/h 22% 0 mm 501.0 W/m2
17:10 31.5 °C 7.9 °C 1003.9 hPa SSW 19.5 km/h 35.4 km/h 23% 0 mm 482.0 W/m2
17:19 31.4 °C 7.8 °C 1003.9 hPa South 25.9 km/h 37 km/h 23% 0 mm 446.0 W/m2
17:25 31.3 °C 7.7 °C 1004.3 hPa SSW 20.9 km/h 30.6 km/h 23% 0 mm 429.0 W/m2
17:35 31.2 °C 8.2 °C 1004.3 hPa SW 30.6 km/h 37 km/h 24% 0 mm 392.0 W/m2
17:40 31.1 °C 8.1 °C 1004.3 hPa SSW 25.9 km/h 33.8 km/h 24% 0 mm 378.0 W/m2
17:45 30.9 °C 8.6 °C 1004.3 hPa South 35.2 km/h 35.4 km/h 25% 0 mm 360.0 W/m2
17:55 30.6 °C 8.3 °C 1004.3 hPa SSW 22.7 km/h 32.2 km/h 25% 0 mm 325.0 W/m2
18:05 29.8 °C 8.8 °C 1004.6 hPa SSW 24.1 km/h 33.8 km/h 27% 0 mm 288.0 W/m2
18:15 29.6 °C 9.2 °C 1004.6 hPa South 27.4 km/h 33.8 km/h 28% 0 mm 255.0 W/m2
18:20 29.4 °C 9 °C 1004.6 hPa SSW 19.5 km/h 33.8 km/h 28% 0 mm 237.0 W/m2
18:27 29.3 °C 8.9 °C 1004.6 hPa SSW 30.6 km/h 38.6 km/h 28% 0 mm 218.0 W/m2
18:33 28.9 °C 9.1 °C 1004.6 hPa SSW 24.1 km/h 32.2 km/h 29% 0 mm 197.0 W/m2
18:46 28.6 °C 9.3 °C 1004.6 hPa SSW 32 km/h 35.4 km/h 30% 0 mm 153.0 W/m2
18:59 28 °C 9.8 °C 1005 hPa SW 35.2 km/h 40.2 km/h 32% 0 mm 93.0 W/m2
19:10 27.5 °C 9.8 °C 1005.3 hPa SSW 22.7 km/h 35.4 km/h 33% 0 mm 60.0 W/m2
19:40 25.8 °C 10 °C 1006 hPa SSW 32 km/h 35.4 km/h 37% 0 mm 11.0 W/m2
19:51 25.5 °C 9.7 °C 1006 hPa SSW 30.6 km/h 30.6 km/h 37% 0 mm 5.0 W/m2
20:06 24.8 °C 9.9 °C 1006.3 hPa SSW 25.9 km/h 33.8 km/h 39% 0 mm 0.0 W/m2
20:21 24.2 °C 10.5 °C 1007 hPa SSW 33.8 km/h 37 km/h 42% 0 mm 0.0 W/m2
20:51 23.2 °C 10.6 °C 1007.3 hPa South 22.7 km/h 29 km/h 45% 0 mm 0.0 W/m2
22:02 20.9 °C 11 °C 1008.7 hPa SSW 22.7 km/h 27.4 km/h 53% 0 mm 0.0 W/m2
22:16 20.4 °C 11.1 °C 1008.7 hPa SSW 22.7 km/h 29 km/h 55% 0 mm 0.0 W/m2
22:26 20.2 °C 11.1 °C 1008.7 hPa SSW 16.3 km/h 24.1 km/h 56% 0 mm 0.0 W/m2
22:38 19.8 °C 11 °C 1009 hPa South 17.7 km/h 30.6 km/h 57% 0 mm 0.0 W/m2
22:46 19.6 °C 11.1 °C 1009 hPa SSW 24.1 km/h 27.4 km/h 58% 0 mm 0.0 W/m2
22:51 19.4 °C 10.9 °C 1009 hPa SSW 19.5 km/h 27.4 km/h 58% 0 mm 0.0 W/m2
23:01 19.1 °C 10.9 °C 1009.4 hPa SSW 24.1 km/h 25.7 km/h 59% 0 mm 0.0 W/m2
23:11 18.9 °C 10.7 °C 1009.4 hPa SSW 27.4 km/h 27.4 km/h 59% 0 mm 0.0 W/m2
23:16 18.8 °C 10.9 °C 1009.4 hPa SSW 27.4 km/h 29 km/h 60% 0 mm 0.0 W/m2
23:21 18.7 °C 10.8 °C 1009.4 hPa SSW 20.9 km/h 30.6 km/h 60% 0 mm 0.0 W/m2
23:26 18.6 °C 10.9 °C 1009.7 hPa SSW 17.7 km/h 27.4 km/h 61% 0 mm 0.0 W/m2
23:36 18.4 °C 11 °C 1009.7 hPa SSW 16.3 km/h 25.7 km/h 62% 0 mm 0.0 W/m2
23:41 18.3 °C 10.9 °C 1010 hPa SSW 20.9 km/h 25.7 km/h 62% 0 mm 0.0 W/m2
23:46 18.2 °C 11 °C 1010 hPa SSW 22.7 km/h 25.7 km/h 63% 0 mm 0.0 W/m2
23:56 18.1 °C 10.9 °C 1010 hPa SSW 20.9 km/h 25.7 km/h 63% 0 mm 0.0 W/m2
Canyon Roadhouse, Fishriver Canyon, Namibia
Compliments of Weather Underground - 2.5 mb